createdAt,value
2022-08-10T00:00:31.577Z,41.73
2022-08-10T00:03:01.177Z,42.03
2022-08-10T00:05:28.517Z,42.01
2022-08-10T00:08:10.492Z,41.69
2022-08-10T00:10:37.335Z,41.47
2022-08-10T00:13:03.897Z,41.47
2022-08-10T00:15:52.335Z,41.40
2022-08-10T00:18:34.282Z,41.51
2022-08-10T00:21:02.355Z,41.82
2022-08-10T00:23:29.045Z,41.88
2022-08-10T00:25:55.894Z,41.46
2022-08-10T00:28:22.458Z,41.78
2022-08-10T00:30:49.038Z,41.75
2022-08-10T00:33:15.685Z,41.72
2022-08-10T00:35:42.510Z,41.76
2022-08-10T00:38:09.095Z,41.83
2022-08-10T00:40:37.996Z,42.14
2022-08-10T00:43:06.008Z,42.37
2022-08-10T00:45:32.868Z,42.44
2022-08-10T00:47:59.446Z,42.13
2022-08-10T00:50:26.174Z,42.41
2022-08-10T00:52:53.225Z,42.41
2022-08-10T00:55:20.889Z,42.61
2022-08-10T00:57:54.832Z,42.65
2022-08-10T01:00:23.005Z,42.68
2022-08-10T01:02:49.869Z,43.13
2022-08-10T01:05:16.679Z,43.12
2022-08-10T01:08:15.305Z,43.29
2022-08-10T01:12:38.621Z,43.42
2022-08-10T01:14:09.560Z,43.63
2022-08-10T01:16:51.136Z,43.91
2022-08-10T01:19:35.118Z,43.98
2022-08-10T01:22:20.757Z,44.15
2022-08-10T01:25:31.352Z,44.19
2022-08-10T01:28:24.285Z,44.35
2022-08-10T01:30:54.632Z,44.46
2022-08-10T01:33:57.896Z,44.77
2022-08-10T01:36:31.946Z,44.74
2022-08-10T01:39:03.500Z,44.87
2022-08-10T01:41:46.149Z,45.07
2022-08-10T01:44:27.512Z,45.12
2022-08-10T01:47:23.573Z,45.15
2022-08-10T01:49:56.086Z,45.20
2022-08-10T01:52:26.555Z,45.58
2022-08-10T01:54:56.597Z,46.11
2022-08-10T01:57:25.716Z,46.53
2022-08-10T01:59:58.635Z,47.03
2022-08-10T02:02:33.877Z,47.10
2022-08-10T02:05:03.469Z,47.40
2022-08-10T02:07:34.530Z,47.38
2022-08-10T02:10:09.681Z,47.34
2022-08-10T02:12:38.590Z,47.31
2022-08-10T02:15:10.685Z,47.36
2022-08-10T02:18:00.500Z,47.22
2022-08-10T02:20:39.990Z,47.85
2022-08-10T02:23:11.656Z,47.86
2022-08-10T02:25:43.390Z,47.69
2022-08-10T02:28:27.302Z,47.46
2022-08-10T02:31:23.012Z,48.22
2022-08-10T02:33:57.546Z,47.89
2022-08-10T02:36:29.539Z,47.77
2022-08-10T02:39:01.068Z,48.10
2022-08-10T02:42:18.259Z,48.04
2022-08-10T02:45:29.345Z,48.11
2022-08-10T02:47:52.589Z,48.31
2022-08-10T02:50:25.161Z,48.29
2022-08-10T02:53:00.141Z,48.52
2022-08-10T02:55:32.367Z,48.71
2022-08-10T02:58:13.292Z,48.84
2022-08-10T03:00:50.226Z,49.01
2022-08-10T03:03:23.778Z,48.94
2022-08-10T03:05:55.532Z,49.08
2022-08-10T03:08:25.901Z,49.63
2022-08-10T03:10:54.730Z,49.88
2022-08-10T03:13:23.076Z,49.87
2022-08-10T03:15:51.562Z,50.13
2022-08-10T03:18:19.995Z,50.49
2022-08-10T03:20:47.659Z,50.54
2022-08-10T03:23:17.453Z,50.86
2022-08-10T03:25:53.692Z,51.03
2022-08-10T03:28:30.184Z,51.07
2022-08-10T03:30:59.527Z,51.24
2022-08-10T03:33:28.746Z,51.57
2022-08-10T03:36:43.262Z,52.09
2022-08-10T03:38:43.659Z,52.54
2022-08-10T03:41:16.043Z,52.91
2022-08-10T03:43:47.758Z,53.08
2022-08-10T03:46:17.177Z,53.26
2022-08-10T03:48:48.645Z,53.13
2022-08-10T03:51:17.487Z,53.12
2022-08-10T03:54:03.634Z,53.29
2022-08-10T03:56:32.791Z,53.15
2022-08-10T03:59:00.535Z,53.12
2022-08-10T04:02:46.141Z,53.34
2022-08-10T04:04:19.224Z,53.49
2022-08-10T04:06:51.397Z,53.68
2022-08-10T04:09:21.154Z,53.64
2022-08-10T04:11:47.990Z,53.75
2022-08-10T04:14:37.881Z,53.54
2022-08-10T04:17:01.180Z,53.39
2022-08-10T04:19:29.930Z,53.57
2022-08-10T04:22:13.715Z,54.24
2022-08-10T04:24:42.092Z,54.55
2022-08-10T04:27:09.350Z,54.52
2022-08-10T04:29:37.179Z,54.91
2022-08-10T04:32:05.119Z,54.92
2022-08-10T04:34:33.496Z,55.18
2022-08-10T04:37:08.647Z,55.06
2022-08-10T04:39:36.018Z,55.55
2022-08-10T04:42:03.729Z,55.27
2022-08-10T04:44:30.997Z,55.39
2022-08-10T04:46:59.540Z,55.21
2022-08-10T04:49:55.373Z,55.39
2022-08-10T04:52:13.566Z,55.38
2022-08-10T04:54:43.149Z,56.18
2022-08-10T04:57:12.742Z,56.33
2022-08-10T04:59:41.094Z,55.98
2022-08-10T05:02:22.003Z,55.83
2022-08-10T05:04:54.125Z,56.08
2022-08-10T05:07:20.836Z,56.46
2022-08-10T05:10:04.179Z,56.10
2022-08-10T05:12:38.497Z,56.12
2022-08-10T05:15:11.057Z,56.59
2022-08-10T05:17:38.815Z,56.85
2022-08-10T05:20:08.505Z,57.01
2022-08-10T05:22:45.971Z,57.24
2022-08-10T05:25:15.407Z,57.22
2022-08-10T05:27:44.879Z,57.68
2022-08-10T05:30:15.203Z,57.47
2022-08-10T05:32:58.284Z,57.75
2022-08-10T05:35:28.149Z,58.03
2022-08-10T05:38:09.461Z,58.04
2022-08-10T05:40:46.488Z,57.82
2022-08-10T05:43:19.874Z,57.86
2022-08-10T05:46:18.084Z,57.76
2022-08-10T05:48:58.222Z,58.15
2022-08-10T05:51:23.767Z,58.28
2022-08-10T05:54:03.362Z,57.93
2022-08-10T05:56:53.311Z,57.11
2022-08-10T06:00:29.333Z,56.43
2022-08-10T06:02:30.807Z,55.69
2022-08-10T06:05:09.633Z,54.99
2022-08-10T06:07:59.701Z,54.81
2022-08-10T06:10:32.725Z,54.64
2022-08-10T06:13:30.238Z,54.15
2022-08-10T06:16:10.407Z,54.67
2022-08-10T06:18:38.151Z,54.18
2022-08-10T06:21:06.765Z,53.30
2022-08-10T06:23:34.818Z,52.60
2022-08-10T06:26:09.552Z,51.61
2022-08-10T06:28:44.050Z,52.10
2022-08-10T06:31:46.549Z,53.14
2022-08-10T06:34:19.672Z,54.17
2022-08-10T06:36:48.230Z,54.75
2022-08-10T06:39:32.897Z,54.45
2022-08-10T06:42:33.622Z,54.40
2022-08-10T06:45:13.547Z,53.71
2022-08-10T06:48:02.865Z,53.92
2022-08-10T06:50:55.975Z,53.40
2022-08-10T06:53:53.727Z,53.36
2022-08-10T06:56:35.821Z,53.22
2022-08-10T06:59:21.997Z,52.49
2022-08-10T07:02:03.577Z,51.01
2022-08-10T07:04:34.870Z,50.33
2022-08-10T07:07:04.532Z,50.68
2022-08-10T07:09:35.677Z,50.60
2022-08-10T07:12:07.602Z,51.29
2022-08-10T07:14:42.536Z,50.71
2022-08-10T07:17:24.375Z,50.04
2022-08-10T07:20:01.801Z,49.62
2022-08-10T07:23:51.749Z,49.32
2022-08-10T07:25:25.208Z,49.75
2022-08-10T07:28:00.151Z,49.81
2022-08-10T07:30:35.859Z,49.41
2022-08-10T07:33:04.711Z,48.72
2022-08-10T07:35:41.725Z,48.00
2022-08-10T07:38:16.035Z,47.62
2022-08-10T07:40:44.023Z,46.16
2022-08-10T07:43:12.614Z,47.27
2022-08-10T07:45:42.582Z,46.12
2022-08-10T07:48:14.739Z,45.22
2022-08-10T07:50:42.765Z,44.93
2022-08-10T07:53:13.655Z,44.25
2022-08-10T07:56:04.373Z,43.03
2022-08-10T07:58:31.870Z,41.83
2022-08-10T08:01:00.214Z,40.75
2022-08-10T08:03:29.424Z,41.78
2022-08-10T08:06:02.962Z,40.53
2022-08-10T08:08:33.750Z,41.20
2022-08-10T08:11:01.601Z,40.04
2022-08-10T08:13:29.565Z,39.89
2022-08-10T08:16:17.797Z,37.80
2022-08-10T08:18:58.426Z,37.00
2022-08-10T08:24:04.979Z,38.64
2022-08-10T08:24:32.489Z,38.36
2022-08-10T08:27:03.137Z,36.92
2022-08-10T08:29:33.853Z,37.24
2022-08-10T08:32:03.475Z,37.08
2022-08-10T08:34:36.458Z,37.17
2022-08-10T08:37:04.453Z,36.54
2022-08-10T08:39:33.215Z,36.90
2022-08-10T08:42:41.653Z,37.54
2022-08-10T08:45:29.662Z,37.29
2022-08-10T08:48:11.543Z,35.40
2022-08-10T08:50:57.842Z,33.11
2022-08-10T08:54:01.648Z,32.87
2022-08-10T08:57:07.550Z,32.00
2022-08-10T09:00:05.957Z,30.21
2022-08-10T09:02:54.878Z,30.08
2022-08-10T09:06:00.149Z,30.13
2022-08-10T09:08:32.510Z,28.77
2022-08-10T09:11:04.410Z,28.71
2022-08-10T09:13:48.923Z,27.62
2022-08-10T09:16:24.268Z,27.44
2022-08-10T09:19:05.724Z,26.97
2022-08-10T09:21:59.122Z,26.93
2022-08-10T09:24:52.120Z,25.73
2022-08-10T09:27:29.481Z,25.26
2022-08-10T09:30:08.486Z,23.84
2022-08-10T09:36:13.493Z,25.20
2022-08-10T09:36:22.447Z,24.87
2022-08-10T09:40:56.169Z,24.34
2022-08-10T09:42:23.938Z,23.26
2022-08-10T09:45:06.826Z,23.22
2022-08-10T09:48:01.003Z,24.26
2022-08-10T09:54:07.708Z,22.37
2022-08-10T09:57:44.422Z,23.37
2022-08-10T10:00:12.506Z,21.41
2022-08-10T10:03:01.987Z,21.44
2022-08-10T10:05:36.746Z,20.73
2022-08-10T10:08:14.998Z,21.38
2022-08-10T10:11:11.276Z,21.02
2022-08-10T10:14:02.475Z,20.08
2022-08-10T10:16:52.312Z,19.62
2022-08-10T10:19:55.522Z,18.76
2022-08-10T10:22:58.931Z,18.76
2022-08-10T10:26:18.743Z,19.40
2022-08-10T10:29:44.930Z,18.47
2022-08-10T10:32:43.459Z,18.28
2022-08-10T10:35:24.045Z,18.01
2022-08-10T10:38:01.861Z,18.52
2022-08-10T10:40:37.664Z,18.06
2022-08-10T10:43:26.061Z,18.52
2022-08-10T10:46:04.921Z,17.65
2022-08-10T10:48:46.887Z,18.09
2022-08-10T10:51:28.629Z,17.57
2022-08-10T10:54:21.085Z,17.05
2022-08-10T10:56:56.337Z,17.51
2022-08-10T10:59:55.481Z,17.78
2022-08-10T11:02:41.675Z,17.55
2022-08-10T11:05:31.470Z,16.98
2022-08-10T11:08:01.457Z,16.81
2022-08-10T11:10:35.823Z,16.37
2022-08-10T11:14:26.972Z,16.33
2022-08-10T11:16:28.694Z,16.75
2022-08-10T11:18:57.838Z,16.74
2022-08-10T11:21:24.504Z,16.34
2022-08-10T11:24:49.018Z,15.97
2022-08-10T11:27:02.523Z,16.06
2022-08-10T11:29:49.501Z,16.10
2022-08-10T11:32:44.107Z,15.69
2022-08-10T11:35:30.463Z,15.72
2022-08-10T11:38:31.162Z,15.58
2022-08-10T11:42:10.367Z,16.63
2022-08-10T11:44:13.391Z,15.97
2022-08-10T11:46:53.514Z,15.71
2022-08-10T11:49:34.006Z,16.68
2022-08-10T11:52:44.196Z,17.11
2022-08-10T11:55:19.351Z,16.42
2022-08-10T11:57:54.197Z,16.06
2022-08-10T12:00:24.080Z,15.05
2022-08-10T12:02:55.680Z,15.95
2022-08-10T12:05:46.451Z,15.84
2022-08-10T12:10:05.208Z,15.46
2022-08-10T12:11:18.118Z,15.29
2022-08-10T12:14:19.811Z,15.40
2022-08-10T12:16:48.868Z,14.60
2022-08-10T12:19:29.452Z,14.05
2022-08-10T12:22:31.011Z,14.43
2022-08-10T12:25:07.185Z,13.97
2022-08-10T12:27:53.298Z,13.37
2022-08-10T12:30:29.442Z,14.12
2022-08-10T12:33:09.270Z,14.09
2022-08-10T12:36:17.431Z,13.62
2022-08-10T12:38:47.604Z,13.31
2022-08-10T12:41:43.464Z,13.55
2022-08-10T12:44:22.377Z,13.89
2022-08-10T12:46:48.864Z,13.69
2022-08-10T12:49:28.559Z,13.77
2022-08-10T12:52:09.071Z,13.93
2022-08-10T12:54:37.377Z,13.65
2022-08-10T12:57:10.172Z,13.54
2022-08-10T12:59:43.311Z,13.32
2022-08-10T13:02:14.826Z,13.42
2022-08-10T13:04:44.044Z,13.26
2022-08-10T13:08:24.958Z,13.82
2022-08-10T13:10:04.104Z,13.92
2022-08-10T13:12:44.678Z,14.02
2022-08-10T13:15:45.744Z,14.47
2022-08-10T13:18:18.589Z,13.85
2022-08-10T13:20:53.545Z,13.58
2022-08-10T13:23:31.571Z,13.50
2022-08-10T13:26:01.047Z,13.49
2022-08-10T13:28:45.391Z,12.97
2022-08-10T13:31:18.298Z,12.86
2022-08-10T13:34:38.785Z,12.16
2022-08-10T13:36:42.117Z,13.04
2022-08-10T13:39:10.477Z,13.08
2022-08-10T13:41:45.684Z,14.21
2022-08-10T13:44:17.778Z,13.53
2022-08-10T13:46:53.689Z,12.47
2022-08-10T13:49:25.517Z,13.64
2022-08-10T13:51:57.899Z,13.50
2022-08-10T13:54:29.626Z,13.49
2022-08-10T13:56:57.851Z,13.83
2022-08-10T14:00:34.472Z,13.90
2022-08-10T14:02:21.854Z,13.59
2022-08-10T14:04:48.914Z,12.50
2022-08-10T14:07:17.853Z,12.52
2022-08-10T14:09:47.572Z,14.81
2022-08-10T14:12:17.653Z,14.62
2022-08-10T14:14:52.695Z,13.94
2022-08-10T14:17:22.189Z,13.29
2022-08-10T14:19:51.576Z,13.42
2022-08-10T14:22:34.323Z,13.70
2022-08-10T14:25:12.866Z,13.05
2022-08-10T14:28:03.134Z,14.40
2022-08-10T14:30:32.126Z,13.28
2022-08-10T14:33:04.187Z,13.78
2022-08-10T14:36:21.326Z,13.70
2022-08-10T14:38:26.751Z,14.21
2022-08-10T14:40:56.916Z,13.87
2022-08-10T14:43:40.276Z,13.38
2022-08-10T14:46:11.103Z,13.52
2022-08-10T14:48:48.158Z,13.82
2022-08-10T14:51:17.946Z,14.82
2022-08-10T14:53:52.370Z,13.94
2022-08-10T14:56:29.802Z,14.72
2022-08-10T14:59:06.819Z,14.35
2022-08-10T15:02:01.173Z,13.76
2022-08-10T15:04:26.694Z,14.55
2022-08-10T15:07:03.800Z,14.59
2022-08-10T15:09:59.914Z,13.65
2022-08-10T15:12:48.470Z,14.52
2022-08-10T15:15:27.990Z,15.23
2022-08-10T15:17:57.875Z,14.77
2022-08-10T15:20:27.445Z,14.15
2022-08-10T15:23:00.902Z,14.83
2022-08-10T15:25:29.092Z,14.65
2022-08-10T15:28:11.235Z,14.47
2022-08-10T15:30:42.852Z,14.88
2022-08-10T15:33:59.310Z,14.23
2022-08-10T15:36:41.731Z,14.76
2022-08-10T15:40:20.614Z,15.46
2022-08-10T15:42:20.944Z,14.66
2022-08-10T15:44:54.036Z,14.77
2022-08-10T15:47:45.182Z,15.34
2022-08-10T15:50:27.986Z,14.41
2022-08-10T15:53:01.915Z,14.35
2022-08-10T15:55:51.592Z,14.56
2022-08-10T15:58:23.790Z,15.11
2022-08-10T16:02:12.488Z,15.64
2022-08-10T16:04:43.617Z,16.08
2022-08-10T16:07:48.939Z,16.01
2022-08-10T16:10:26.097Z,16.31
2022-08-10T16:13:01.318Z,16.30
2022-08-10T16:15:30.270Z,17.01
2022-08-10T16:18:09.006Z,16.84
2022-08-10T16:20:55.531Z,16.75
2022-08-10T16:23:31.722Z,16.30
2022-08-10T16:26:13.604Z,16.71
2022-08-10T16:28:49.947Z,17.36
2022-08-10T16:31:22.550Z,16.06
2022-08-10T16:33:55.377Z,17.12
2022-08-10T16:36:28.939Z,17.32
2022-08-10T16:38:57.569Z,16.95
2022-08-10T16:42:03.869Z,17.56
2022-08-10T16:44:15.893Z,17.89
2022-08-10T16:46:45.201Z,18.39
2022-08-10T16:49:15.095Z,17.57
2022-08-10T16:51:47.124Z,18.04
2022-08-10T16:54:22.347Z,17.65
2022-08-10T16:56:52.850Z,18.00
2022-08-10T16:59:24.779Z,18.28
2022-08-10T17:01:54.150Z,18.97
2022-08-10T17:04:23.625Z,18.54
2022-08-10T17:06:59.733Z,18.33
2022-08-10T17:09:33.150Z,17.83
2022-08-10T17:12:05.487Z,18.48
2022-08-10T17:14:32.190Z,18.03
2022-08-10T17:17:05.779Z,17.97
2022-08-10T17:19:37.782Z,18.24
2022-08-10T17:22:11.753Z,17.73
2022-08-10T17:24:45.833Z,18.47
2022-08-10T17:28:03.000Z,17.92
2022-08-10T17:30:07.029Z,18.10
2022-08-10T17:32:45.653Z,17.97
2022-08-10T17:35:23.331Z,18.55
2022-08-10T17:38:10.015Z,18.98
2022-08-10T17:40:57.817Z,19.06
2022-08-10T17:44:01.107Z,19.57
2022-08-10T17:46:14.325Z,20.04
2022-08-10T17:48:42.864Z,19.40
2022-08-10T17:51:15.450Z,19.55
2022-08-10T17:53:52.001Z,20.20
2022-08-10T17:56:22.621Z,19.72
2022-08-10T17:58:53.720Z,20.17
2022-08-10T18:01:38.910Z,20.77
2022-08-10T18:04:17.213Z,21.11
2022-08-10T18:06:44.415Z,20.88
2022-08-10T18:09:24.115Z,21.20
2022-08-10T18:11:57.834Z,21.88
2022-08-10T18:14:29.935Z,21.70
2022-08-10T18:16:58.913Z,22.01
2022-08-10T18:19:29.888Z,21.86
2022-08-10T18:21:58.179Z,22.48
2022-08-10T18:24:27.143Z,22.84
2022-08-10T18:26:56.314Z,23.05
2022-08-10T18:29:27.534Z,23.08
2022-08-10T18:32:02.616Z,23.33
2022-08-10T18:34:31.648Z,23.38
2022-08-10T18:37:00.183Z,23.81
2022-08-10T18:39:36.315Z,24.10
2022-08-10T18:43:01.282Z,24.41
2022-08-10T18:45:32.307Z,24.54
2022-08-10T18:48:05.032Z,25.13
2022-08-10T18:50:37.653Z,25.37
2022-08-10T18:53:18.459Z,26.37
2022-08-10T18:56:09.315Z,26.52
2022-08-10T18:59:04.949Z,26.66
2022-08-10T19:02:01.565Z,27.07
2022-08-10T19:04:36.050Z,30.44
2022-08-10T19:07:02.523Z,31.22
2022-08-10T19:09:48.467Z,30.21
2022-08-10T19:12:33.775Z,30.15
2022-08-10T19:15:25.195Z,29.78
2022-08-10T19:18:20.009Z,30.19
2022-08-10T19:20:49.928Z,30.33
2022-08-10T19:23:22.274Z,30.75
2022-08-10T19:26:42.501Z,30.71
2022-08-10T19:29:05.081Z,30.49
2022-08-10T19:31:44.258Z,31.74
2022-08-10T19:34:21.771Z,32.20
2022-08-10T19:37:32.527Z,32.40
2022-08-10T19:40:44.196Z,32.10
2022-08-10T19:43:59.110Z,32.67
2022-08-10T19:46:35.664Z,32.92
2022-08-10T19:49:24.197Z,32.58
2022-08-10T19:52:11.534Z,32.73
2022-08-10T19:55:03.849Z,33.20
2022-08-10T19:57:38.407Z,33.25
2022-08-10T20:00:19.593Z,33.43
2022-08-10T20:02:59.683Z,33.15
2022-08-10T20:05:32.681Z,33.61
2022-08-10T20:08:17.823Z,33.00
2022-08-10T20:11:10.309Z,33.36
2022-08-10T20:14:09.334Z,34.38
2022-08-10T20:16:48.446Z,34.14
2022-08-10T20:19:53.229Z,34.05
2022-08-10T20:22:29.773Z,33.75
2022-08-10T20:25:22.788Z,33.95
2022-08-10T20:28:09.144Z,34.27
2022-08-10T20:30:39.782Z,34.54
2022-08-10T20:33:12.367Z,33.93
2022-08-10T20:36:07.855Z,34.12
2022-08-10T20:38:48.246Z,34.19
2022-08-10T20:41:31.678Z,34.02
2022-08-10T20:44:22.415Z,34.14
2022-08-10T20:47:00.343Z,34.52
2022-08-10T20:49:31.137Z,34.68
2022-08-10T20:52:02.161Z,34.68
2022-08-10T20:54:35.334Z,35.16
2022-08-10T20:57:56.206Z,35.06
2022-08-10T21:00:30.013Z,35.38
2022-08-10T21:03:27.296Z,35.21
2022-08-10T21:06:13.672Z,35.33
2022-08-10T21:09:02.150Z,35.38
2022-08-10T21:11:49.505Z,35.50
2022-08-10T21:14:32.439Z,35.76
2022-08-10T21:17:03.121Z,36.22
2022-08-10T21:22:44.972Z,36.68
2022-08-10T21:25:15.457Z,37.33
2022-08-10T21:25:41.910Z,36.35
2022-08-10T21:28:03.492Z,37.65
2022-08-10T21:30:55.245Z,37.46
2022-08-10T21:33:45.283Z,37.40
2022-08-10T21:36:27.270Z,37.68
2022-08-10T21:39:19.927Z,37.91
2022-08-10T21:42:16.957Z,37.96
2022-08-10T21:45:24.686Z,38.06
2022-08-10T21:48:57.622Z,38.03
2022-08-10T21:52:04.159Z,38.29
2022-08-10T21:55:09.977Z,38.19
2022-08-10T21:58:28.461Z,37.44
2022-08-10T22:01:39.167Z,38.27
2022-08-10T22:04:25.418Z,37.77
2022-08-10T22:07:11.165Z,38.38
2022-08-10T22:13:11.370Z,37.59
2022-08-10T22:16:10.470Z,37.30
2022-08-10T22:19:02.634Z,37.66
2022-08-10T22:22:27.815Z,38.06
2022-08-10T22:26:02.149Z,39.49
2022-08-10T22:28:48.565Z,39.90
2022-08-10T22:31:25.830Z,37.27
2022-08-10T22:32:15.412Z,40.64
2022-08-10T22:35:23.127Z,40.41
2022-08-10T22:38:34.184Z,40.79
2022-08-10T22:41:32.069Z,41.04
2022-08-10T22:44:19.477Z,40.97
2022-08-10T22:47:06.959Z,40.86
2022-08-10T22:49:34.440Z,41.15
2022-08-10T22:52:09.762Z,40.46
2022-08-10T22:55:06.904Z,41.01
2022-08-10T22:57:52.334Z,40.78
2022-08-10T23:00:31.395Z,40.84
2022-08-10T23:03:21.585Z,40.89
2022-08-10T23:05:57.677Z,40.13
2022-08-10T23:08:31.195Z,40.25
2022-08-10T23:11:04.561Z,40.08
2022-08-10T23:13:36.467Z,40.39
2022-08-10T23:16:33.375Z,40.55
2022-08-10T23:19:09.904Z,40.10
2022-08-10T23:22:03.876Z,39.96
2022-08-10T23:24:41.713Z,40.77
2022-08-10T23:27:37.373Z,40.64
2022-08-10T23:30:09.497Z,40.88
2022-08-10T23:32:42.352Z,41.36
2022-08-10T23:36:08.872Z,41.79
2022-08-10T23:38:04.826Z,41.90
2022-08-10T23:40:33.392Z,42.34
2022-08-10T23:43:02.184Z,42.66
2022-08-10T23:45:52.483Z,42.36
2022-08-10T23:48:23.400Z,42.66
2022-08-10T23:50:59.669Z,42.90
2022-08-10T23:53:30.230Z,42.96
2022-08-10T23:56:20.831Z,42.80
2022-08-10T23:58:50.249Z,42.75
